Time;durP1;ratioP1;P1;durP2;ratioP2;P2;SDS_P1;SDS_P2;PMS_P1;PMS_P2;Temp;Humidity;BMP_temperature;BMP_pressure;BME280_temperature;BME280_humidity;BME280_pressure;Samples;Min_cycle;Max_cycle;Signal;HPM_P1;HPM_P2
2022/06/20 00:00:48;;;;;;;2.52;2.33;;;;;;;14.22;75.04;95668.64;1762592;81;20991;-64
2022/06/20 00:03:26;;;;;;;2.87;2.40;;;;;;;14.25;75.18;95667.68;1762589;81;21011;-64
2022/06/20 00:05:53;;;;;;;3.27;2.62;;;;;;;14.31;74.88;95663.48;1762308;81;21058;-64
2022/06/20 00:08:20;;;;;;;2.55;2.35;;;;;;;14.25;74.74;95667.22;1762606;81;21058;-64
2022/06/20 00:10:48;;;;;;;2.50;2.27;;;;;;;14.29;74.75;95666.67;1762551;81;21038;-64
2022/06/20 00:13:26;;;;;;;3.67;2.65;;;;;;;14.25;74.41;95661.91;1762493;81;21026;-64
2022/06/20 00:15:56;;;;;;;3.12;2.60;;;;;;;14.24;75.70;95658.00;1762604;81;21050;-64
2022/06/20 00:18:23;;;;;;;3.20;2.42;;;;;;;14.28;75.03;95659.61;1762522;81;20971;-64
2022/06/20 00:20:50;;;;;;;2.42;2.22;;;;;;;14.22;75.27;95655.84;1762543;81;21027;-64
2022/06/20 00:23:17;;;;;;;2.72;2.40;;;;;;;14.16;75.46;95657.34;1762394;81;21061;-64
2022/06/20 00:25:44;;;;;;;4.08;2.70;;;;;;;14.08;75.50;95656.26;1762442;81;21030;-64
2022/06/20 00:28:12;;;;;;;6.05;2.55;;;;;;;14.02;76.50;95661.30;1762598;81;21480;-64
2022/06/20 00:30:39;;;;;;;3.30;3.00;;;;;;;14.05;76.38;95663.86;1762360;81;21094;-64
2022/06/20 00:33:07;;;;;;;4.28;2.52;;;;;;;14.01;76.65;95663.99;1762583;81;21006;-64
2022/06/20 00:35:34;;;;;;;3.75;2.42;;;;;;;14.02;76.58;95662.63;1762380;81;20988;-64
2022/06/20 00:38:04;;;;;;;3.33;2.87;;;;;;;13.99;76.14;95663.20;1762437;81;20998;-64
2022/06/20 00:40:41;;;;;;;2.42;2.22;;;;;;;13.94;76.06;95658.03;1728635;81;21070;-64
2022/06/20 00:43:13;;;;;;;4.58;2.50;;;;;;;13.89;75.76;95655.12;1762749;81;21037;-64
2022/06/20 00:45:44;;;;;;;2.65;2.45;;;;;;;13.66;76.48;95652.70;1762537;81;21018;-64
2022/06/20 00:48:25;;;;;;;4.37;2.72;;;;;;;13.54;76.87;95650.41;1762502;81;21532;-64
2022/06/20 00:50:57;;;;;;;3.10;2.40;;;;;;;13.52;77.54;95645.13;1761013;81;21058;-64
2022/06/20 00:53:42;;;;;;;3.00;2.80;;;;;;;13.55;76.97;95644.17;1745443;81;21062;-64
2022/06/20 00:56:20;;;;;;;2.92;2.72;;;;;;;13.54;77.62;95640.66;1762345;81;21018;-64
2022/06/20 00:58:55;;;;;;;3.25;2.60;;;;;;;13.59;77.24;95637.88;1762542;81;21497;-64
2022/06/20 01:01:27;;;;;;;3.00;2.70;;;;;;;13.64;76.99;95636.82;1762601;81;21469;-64
2022/06/20 01:03:58;;;;;;;3.20;2.52;;;;;;;13.64;77.26;95632.84;1761491;81;21006;-64
2022/06/20 01:06:30;;;;;;;2.72;2.50;;;;;;;13.63;76.93;95631.12;1762386;81;21070;-64
2022/06/20 01:09:05;;;;;;;4.12;2.62;;;;;;;13.62;76.48;95632.02;1762733;81;21050;-64
2022/06/20 01:11:45;;;;;;;3.90;2.52;;;;;;;13.64;76.58;95631.98;1760344;81;21492;-64
2022/06/20 01:14:28;;;;;;;2.77;2.52;;;;;;;13.62;77.31;95630.69;1762593;81;21488;-66
2022/06/20 01:16:58;;;;;;;3.97;2.40;;;;;;;13.64;77.62;95627.54;1762837;81;21011;-66
2022/06/20 01:19:49;;;;;;;3.20;2.90;;;;;;;13.62;76.72;95623.20;1762567;81;21560;-66
2022/06/20 01:22:30;;;;;;;3.27;2.20;;;;;;;13.55;76.36;95628.27;1762450;81;21015;-66
2022/06/20 01:25:03;;;;;;;2.92;2.60;;;;;;;13.49;77.26;95621.84;1748378;81;21061;-66
2022/06/20 01:27:41;;;;;;;3.70;2.55;;;;;;;13.51;77.04;95627.97;1760721;81;21026;-66
2022/06/20 01:30:09;;;;;;;2.60;2.40;;;;;;;13.44;77.25;95623.75;1762530;81;21324;-66
2022/06/20 01:32:38;;;;;;;2.60;2.40;;;;;;;13.41;77.23;95633.53;1762320;81;21010;-66
2022/06/20 01:35:10;;;;;;;3.17;2.80;;;;;;;13.40;77.36;95625.14;1762697;81;20967;-66
2022/06/20 01:37:41;;;;;;;2.77;2.33;;;;;;;13.37;77.63;95633.66;1762709;81;20990;-66
2022/06/20 01:40:12;;;;;;;3.77;2.75;;;;;;;13.34;77.86;95629.31;1762943;81;20989;-66
2022/06/20 01:42:42;;;;;;;3.08;2.65;;;;;;;13.39;77.17;95631.37;1762581;81;21533;-66
2022/06/20 01:48:06;;;;;;;5.25;2.80;;;;;;;13.44;77.89;95625.94;1762203;81;21110;-66
2022/06/20 01:50:34;;;;;;;2.72;2.52;;;;;;;13.49;78.06;95628.00;1762686;81;20971;-66
2022/06/20 01:53:04;;;;;;;2.92;2.58;;;;;;;13.44;77.63;95627.73;1736419;81;21023;-66
2022/06/20 01:55:32;;;;;;;3.77;2.75;;;;;;;13.40;77.08;95632.23;1765871;81;20966;-67
2022/06/20 01:58:16;;;;;;;3.50;2.67;;;;;;;13.20;77.50;95618.20;1766219;81;21015;-66
2022/06/20 02:00:43;;;;;;;4.05;2.87;;;;;;;13.20;77.91;95620.41;1746014;81;21525;-66
2022/06/20 02:03:14;;;;;;;3.58;3.00;;;;;;;13.16;78.35;95625.37;1766156;81;20991;-66
2022/06/20 02:05:44;;;;;;;2.77;2.58;;;;;;;13.15;77.95;95621.00;1766282;81;21524;-66
2022/06/20 02:08:14;;;;;;;5.42;3.00;;;;;;;13.16;77.92;95617.42;1766223;81;21022;-66
2022/06/20 02:10:52;;;;;;;2.55;2.30;;;;;;;13.17;78.25;95618.29;1766425;81;21011;-66
2022/06/20 02:13:21;;;;;;;6.72;3.55;;;;;;;13.13;77.50;95612.69;1714768;81;21054;-66
2022/06/20 02:15:53;;;;;;;4.42;3.33;;;;;;;13.06;77.83;95611.98;1766201;81;21010;-66
2022/06/20 02:18:21;;;;;;;4.92;2.80;;;;;;;13.02;78.53;95615.61;1766565;81;21118;-66
2022/06/20 02:20:51;;;;;;;3.10;2.90;;;;;;;12.94;78.04;95613.64;1766328;81;21539;-66
2022/06/20 02:23:25;;;;;;;3.33;3.02;;;;;;;12.86;78.27;95618.28;1766460;81;20995;-66
2022/06/20 02:25:54;;;;;;;3.77;2.42;;;;;;;12.83;78.64;95610.43;1766391;81;21524;-66
2022/06/20 02:28:36;;;;;;;2.70;2.50;;;;;;;12.78;79.53;95607.44;1766479;81;21469;-66
2022/06/20 02:31:04;;;;;;;6.00;3.10;;;;;;;12.77;79.62;95607.47;1766424;81;20986;-66
2022/06/20 02:33:31;;;;;;;3.37;3.08;;;;;;;12.86;79.41;95603.72;1766417;81;21015;-66
2022/06/20 02:36:00;;;;;;;3.30;2.67;;;;;;;12.92;78.71;95597.78;1765869;81;21030;-66
2022/06/20 02:38:28;;;;;;;3.95;2.75;;;;;;;12.99;79.45;95599.34;1766570;81;21023;-66
2022/06/20 02:40:56;;;;;;;3.30;3.00;;;;;;;12.97;78.63;95601.16;1766452;81;21476;-66
2022/06/20 02:43:43;;;;;;;2.70;2.50;;;;;;;12.87;78.49;95593.06;1766204;81;20983;-66
2022/06/20 02:46:15;;;;;;;5.22;2.95;;;;;;;12.87;78.85;95594.39;1766277;81;21082;-66
2022/06/20 02:48:46;;;;;;;3.45;2.90;;;;;;;12.84;79.04;95587.86;1736587;81;21014;-66
2022/06/20 02:51:17;;;;;;;3.15;2.85;;;;;;;12.94;78.90;95591.12;1764968;81;20991;-66
2022/06/20 02:53:48;;;;;;;4.15;3.67;;;;;;;13.00;78.52;95586.97;1762608;81;21057;-66
2022/06/20 02:56:19;;;;;;;3.95;3.00;;;;;;;13.03;78.49;95587.34;1762550;81;21010;-66
2022/06/20 02:58:53;;;;;;;3.52;3.20;;;;;;;13.12;78.46;95590.59;1762492;81;21006;-66
2022/06/20 03:01:40;;;;;;;3.83;2.80;;;;;;;13.15;78.21;95587.89;1761980;81;20991;-66
2022/06/20 03:04:08;;;;;;;7.25;5.65;;;;;;;13.21;78.01;95588.16;1762578;81;21391;-66
2022/06/20 03:06:49;;;;;;;54.55;35.83;;;;;;;13.20;77.80;95592.59;1762311;81;21038;-66
2022/06/20 03:09:20;;;;;;;6.65;3.65;;;;;;;13.21;77.60;95600.08;1762754;81;21575;-66
2022/06/20 03:11:47;;;;;;;3.15;2.83;;;;;;;13.18;77.99;95597.53;1762488;81;21528;-66
2022/06/20 03:14:17;;;;;;;8.28;6.83;;;;;;;13.12;77.58;95595.03;1762676;81;21472;-66
2022/06/20 03:16:44;;;;;;;12.68;8.20;;;;;;;13.01;78.44;95598.45;1729064;81;20997;-66
2022/06/20 03:19:17;;;;;;;10.25;7.85;;;;;;;12.94;78.52;95591.98;1762344;81;21516;-66
2022/06/20 03:21:48;;;;;;;11.85;9.35;;;;;;;12.85;78.53;95590.05;1762510;81;21002;-66
2022/06/20 03:24:18;;;;;;;10.03;7.30;;;;;;;12.82;78.58;95588.35;1763206;81;21006;-66
2022/06/20 03:26:45;;;;;;;6.30;5.72;;;;;;;12.85;78.75;95586.08;1762523;81;21045;-66
2022/06/20 03:29:16;;;;;;;8.50;6.85;;;;;;;12.95;78.92;95583.15;1762818;81;21062;-66
2022/06/20 03:31:44;;;;;;;7.80;6.30;;;;;;;13.04;78.92;95583.33;1762633;81;21045;-66
2022/06/20 03:34:12;;;;;;;8.08;7.03;;;;;;;13.23;78.79;95570.88;1762545;81;21473;-66
2022/06/20 03:36:42;;;;;;;11.22;8.60;;;;;;;13.40;78.13;95575.25;1762634;81;21003;-66
2022/06/20 03:39:09;;;;;;;14.40;11.33;;;;;;;13.53;77.59;95570.45;1728560;81;21050;-66
2022/06/20 03:41:37;;;;;;;18.40;14.13;;;;;;;13.60;77.25;95573.33;1762502;81;21504;-66
2022/06/20 03:44:15;;;;;;;57.25;45.58;;;;;;;13.62;77.48;95562.22;1762561;81;20978;-66
2022/06/20 03:46:53;;;;;;;36.05;28.42;;;;;;;13.74;77.35;95563.17;1762349;81;21038;-66
2022/06/20 03:49:25;;;;;;;28.30;22.45;;;;;;;13.84;77.49;95555.80;1762630;81;20995;-66
2022/06/20 03:52:06;;;;;;;23.83;20.43;;;;;;;13.95;77.60;95561.61;1762448;81;21035;-66
2022/06/20 03:54:44;;;;;;;19.70;17.27;;;;;;;14.02;77.51;95559.17;1762507;81;20991;-66
2022/06/20 03:57:17;;;;;;;10.58;8.98;;;;;;;14.07;77.45;95557.70;1762660;81;21007;-66
2022/06/20 03:59:57;;;;;;;7.90;6.47;;;;;;;14.09;78.21;95556.33;1761218;81;21031;-66
2022/06/20 04:02:35;;;;;;;9.23;8.33;;;;;;;14.06;78.20;95558.16;1761865;81;21564;-66
2022/06/20 04:05:22;;;;;;;21.02;16.27;;;;;;;14.09;78.40;95558.98;1747726;81;21021;-66
2022/06/20 04:07:57;;;;;;;17.90;14.80;;;;;;;14.18;78.38;95550.23;1762136;81;21058;-66
2022/06/20 04:10:59;;;;;;;11.80;10.53;;;;;;;14.32;78.02;95551.58;1762535;81;21054;-66
2022/06/20 04:13:35;;;;;;;10.65;9.55;;;;;;;14.48;78.13;95552.77;1762576;81;21007;-66
2022/06/20 04:16:19;;;;;;;6.97;4.72;;;;;;;14.63;77.70;95548.29;1762369;81;21042;-66
2022/06/20 04:19:12;;;;;;;5.25;4.75;;;;;;;14.74;77.38;95545.71;1745611;81;20983;-66
2022/06/20 04:21:52;;;;;;;5.60;4.30;;;;;;;14.84;77.17;95549.77;1762197;81;21003;-66
2022/06/20 04:24:51;;;;;;;4.12;3.72;;;;;;;14.98;76.77;95539.52;1762378;81;21050;-66
2022/06/20 04:27:48;;;;;;;5.62;4.10;;;;;;;15.07;75.98;95542.31;1762657;81;20986;-66
2022/06/20 04:30:26;;;;;;;4.25;3.83;;;;;;;15.18;75.58;95535.27;1762493;81;21018;-66
2022/06/20 04:32:58;;;;;;;6.55;4.35;;;;;;;15.27;75.58;95534.46;1762172;81;21010;-66
2022/06/20 04:35:33;;;;;;;5.72;3.98;;;;;;;15.35;75.27;95521.73;1762207;81;21834;-66
2022/06/20 04:38:26;;;;;;;4.72;4.10;;;;;;;15.52;75.31;95518.87;1762442;81;21041;-66
2022/06/20 04:41:01;;;;;;;7.25;4.20;;;;;;;15.69;75.71;95508.91;1759016;81;21066;-66
2022/06/20 04:43:42;;;;;;;3.72;3.42;;;;;;;15.88;75.44;95499.77;1761154;81;21022;-66
2022/06/20 04:46:30;;;;;;;4.00;3.70;;;;;;;16.03;74.75;95505.78;1762464;81;21118;-66
2022/06/20 04:48:56;;;;;;;5.17;4.00;;;;;;;16.20;74.06;95507.72;1762714;81;20990;-66
2022/06/20 04:51:28;;;;;;;4.60;3.22;;;;;;;16.38;74.12;95505.63;1728757;81;21089;-66
2022/06/20 04:53:55;;;;;;;3.95;3.35;;;;;;;16.58;74.14;95505.21;1766277;81;21057;-66
2022/06/20 04:56:26;;;;;;;3.98;3.58;;;;;;;16.77;73.59;95510.62;1766232;81;21535;-66
2022/06/20 04:59:01;;;;;;;4.08;3.35;;;;;;;16.94;72.79;95504.58;1766155;81;21014;-66
2022/06/20 05:01:34;;;;;;;5.65;3.30;;;;;;;17.12;72.58;95508.20;1766371;81;21030;-66
2022/06/20 05:04:25;;;;;;;5.87;3.27;;;;;;;17.30;72.46;95501.54;1766422;81;20994;-66
2022/06/20 05:06:54;;;;;;;4.00;3.17;;;;;;;17.47;72.14;95506.57;1736383;81;21137;-66
2022/06/20 05:09:38;;;;;;;4.10;3.62;;;;;;;17.66;71.21;95507.41;1766386;81;21066;-66
2022/06/20 05:12:28;;;;;;;5.10;3.87;;;;;;;17.83;71.37;95501.77;1766453;81;21002;-66
2022/06/20 05:15:19;;;;;;;6.55;3.65;;;;;;;18.05;71.15;95506.94;1766402;81;20995;-66
2022/06/20 05:17:48;;;;;;;4.55;3.33;;;;;;;18.24;70.16;95509.06;1701108;84;21050;-66
2022/06/20 05:20:29;;;;;;;4.58;3.70;;;;;;;18.58;69.56;95510.04;1760025;81;21017;-66
2022/06/20 05:23:30;;;;;;;6.28;3.92;;;;;;;18.58;69.56;95510.04;1779827;80;20999;-66
2022/06/20 05:26:00;;;;;;;5.30;4.10;;;;;;;18.90;68.68;95500.38;1779990;80;21088;-66
2022/06/20 05:28:28;;;;;;;4.60;3.45;;;;;;;18.90;68.68;95500.38;1779989;80;20987;-66
2022/06/20 05:30:55;;;;;;;6.03;3.50;;;;;;;18.98;68.01;95502.65;1780069;81;20982;-66
2022/06/20 05:34:12;;;;;;;4.25;3.30;;;;;;;19.13;66.96;95511.67;1779944;81;20987;-66
2022/06/20 05:37:03;;;;;;;9.18;3.30;;;;;;;19.25;67.21;95500.28;1746048;82;21154;-66
2022/06/20 05:39:38;;;;;;;7.55;3.52;;;;;;;19.41;66.88;95499.84;1756345;82;21022;-66
2022/06/20 05:42:11;;;;;;;4.25;3.60;;;;;;;19.54;65.75;95496.02;1746963;82;21036;-66
2022/06/20 05:44:38;;;;;;;4.72;3.00;;;;;;;19.68;65.89;95497.98;1758536;81;21022;-66
2022/06/20 05:47:12;;;;;;;4.80;4.30;;;;;;;19.82;65.61;95495.36;1758357;81;21461;-66
2022/06/20 05:49:47;;;;;;;5.87;3.47;;;;;;;19.96;65.36;95487.02;1758599;81;21039;-66
2022/06/20 05:52:19;;;;;;;4.75;3.52;;;;;;;20.08;64.80;95488.54;1756940;81;21038;-66
2022/06/20 05:54:51;;;;;;;8.03;3.40;;;;;;;20.23;64.43;95491.25;1764382;81;21070;-66
2022/06/20 05:57:21;;;;;;;3.97;3.47;;;;;;;20.38;64.27;95492.18;1765205;81;21002;-66
2022/06/20 05:59:56;;;;;;;7.03;3.33;;;;;;;20.53;63.04;95493.95;1765253;81;21257;-66
2022/06/20 06:02:40;;;;;;;3.92;3.45;;;;;;;20.66;63.22;95492.77;1764031;81;20998;-64
2022/06/20 06:05:36;;;;;;;7.92;3.35;;;;;;;20.80;63.14;95490.13;1765364;81;21066;-64
2022/06/20 06:08:36;;;;;;;5.70;3.05;;;;;;;20.95;62.51;95486.51;1765149;81;21057;-64
2022/06/20 06:11:36;;;;;;;9.60;3.40;;;;;;;21.10;62.03;95488.73;1765348;81;21038;-64
2022/06/20 06:14:08;;;;;;;10.23;3.47;;;;;;;21.27;61.88;95485.45;1765611;81;21022;-64
2022/06/20 06:16:48;;;;;;;8.78;2.98;;;;;;;;;;1765634;81;21014;-64
2022/06/20 06:19:37;;;;;;;5.30;3.00;;;;;;;21.52;60.48;95487.04;1787174;80;21497;-64
2022/06/20 06:22:22;;;;;;;7.70;3.10;;;;;;;21.69;59.73;95487.77;1787152;80;20975;-64
2022/06/20 06:24:57;;;;;;;9.05;3.35;;;;;;;21.85;58.43;95483.15;1786907;80;21586;-64
2022/06/20 06:27:29;;;;;;;5.97;3.15;;;;;;;22.03;58.82;95473.87;1787228;80;21425;-64
2022/06/20 06:30:00;;;;;;;6.67;3.47;;;;;;;22.21;58.98;95476.34;1787359;80;21023;-64
2022/06/20 06:32:32;;;;;;;12.35;3.30;;;;;;;22.36;58.04;95473.98;1786534;80;21003;-64
2022/06/20 06:35:14;;;;;;;4.10;3.17;;;;;;;22.53;58.11;95470.16;1786852;80;21544;-64
2022/06/20 06:37:55;;;;;;;9.58;3.17;;;;;;;22.69;57.62;95471.31;1787134;80;21015;-64
2022/06/20 06:40:35;;;;;;;3.65;2.80;;;;;;;22.88;56.77;95478.50;1787275;80;20983;-64
2022/06/20 06:43:22;;;;;;;3.87;3.20;;;;;;;23.04;54.82;95471.59;1787084;80;21038;-64
2022/06/20 06:45:53;;;;;;;3.83;2.62;;;;;;;23.21;54.45;95459.65;1786212;80;21449;-64
2022/06/20 06:48:46;;;;;;;4.78;2.30;;;;;;;23.37;51.45;95455.38;1787185;80;21011;-64
2022/06/20 06:51:24;;;;;;;3.92;2.45;;;;;;;23.53;50.29;95455.12;1787493;80;20948;-65
2022/06/20 06:54:02;;;;;;;4.90;3.30;;;;;;;23.73;51.02;95457.75;1786736;80;21046;-65
2022/06/20 06:56:44;;;;;;;4.35;3.67;;;;;;;23.86;48.85;95453.67;1784941;80;21107;-64
2022/06/20 06:59:21;;;;;;;4.58;3.10;;;;;;;24.01;48.65;95459.27;1786360;80;21062;-65
2022/06/20 07:01:52;;;;;;;4.62;2.40;;;;;;;24.16;48.59;95450.04;1787230;80;21453;-64
2022/06/20 07:04:27;;;;;;;6.40;2.90;;;;;;;24.32;48.37;95445.73;1787186;80;21011;-65
2022/06/20 07:07:18;;;;;;;10.65;3.25;;;;;;;24.48;47.04;95447.29;1787166;80;21042;-65
2022/06/20 07:09:52;;;;;;;4.65;2.60;;;;;;;24.56;45.27;95436.27;1786723;80;21528;-65
2022/06/20 07:12:38;;;;;;;6.28;2.60;;;;;;;24.67;44.91;95435.94;1787351;80;21321;-65
2022/06/20 07:15:19;;;;;;;6.10;2.67;;;;;;;24.80;44.61;95432.69;1786937;80;21003;-65
2022/06/20 07:17:57;;;;;;;5.10;3.10;;;;;;;24.95;45.67;95422.04;1787283;80;21046;-64
2022/06/20 07:20:29;;;;;;;7.08;2.85;;;;;;;25.12;44.04;95422.53;1785983;80;21477;-65
2022/06/20 07:23:00;;;;;;;2.80;2.60;;;;;;;25.23;43.54;95418.05;1787277;80;21461;-65
2022/06/20 07:25:37;;;;;;;2.90;2.60;;;;;;;25.28;41.84;95423.58;1786888;80;21014;-65
2022/06/20 07:28:46;;;;;;;2.85;2.35;;;;;;;25.40;42.46;95419.87;1750244;80;21513;-65
2022/06/20 07:31:41;;;;;;;5.78;2.80;;;;;;;25.51;41.41;95422.58;1787209;80;20998;-64
2022/06/20 07:34:30;;;;;;;4.25;2.50;;;;;;;25.66;42.32;95422.69;1787134;80;21524;-65
2022/06/20 07:37:01;;;;;;;3.90;3.00;;;;;;;25.81;40.42;95428.69;1787216;80;21015;-65
2022/06/20 07:39:39;;;;;;;8.95;2.90;;;;;;;25.92;39.65;95426.98;1785971;80;20979;-65
2022/06/20 07:42:28;;;;;;;3.35;2.70;;;;;;;25.99;40.01;95432.25;1786633;80;21017;-65
2022/06/20 07:45:12;;;;;;;5.33;2.87;;;;;;;26.07;39.33;95434.67;1787145;80;21014;-65
2022/06/20 07:47:58;;;;;;;5.08;2.67;;;;;;;26.21;40.18;95440.81;1787237;80;21015;-65
2022/06/20 07:50:33;;;;;;;3.15;2.85;;;;;;;26.37;40.05;95440.38;1785946;80;20975;-65
2022/06/20 07:53:13;;;;;;;4.37;2.70;;;;;;;26.43;39.21;95437.14;1774189;80;21512;-65
2022/06/20 07:55:44;;;;;;;8.50;2.85;;;;;;;26.54;39.10;95435.79;1774844;80;21074;-65
2022/06/20 07:58:22;;;;;;;3.15;2.72;;;;;;;26.61;37.73;95432.94;1794562;80;21515;-65
2022/06/20 08:00:53;;;;;;;5.90;2.87;;;;;;;26.71;38.96;95440.63;1795455;80;21834;-65
2022/06/20 08:03:40;;;;;;;3.47;2.98;;;;;;;26.86;38.71;95442.99;1795518;80;21519;-65
2022/06/20 08:06:28;;;;;;;2.80;2.45;;;;;;;26.88;37.40;95441.87;1795540;80;20994;-65
2022/06/20 08:09:06;;;;;;;3.25;2.95;;;;;;;26.89;37.05;95441.40;1762954;81;20975;-65
2022/06/20 08:11:43;;;;;;;4.33;2.80;;;;;;;27.01;37.43;95444.88;1795598;80;21065;-65
2022/06/20 08:14:24;;;;;;;2.90;2.70;;;;;;;27.10;36.63;95431.91;1795362;80;21457;-65
2022/06/20 08:16:56;;;;;;;5.65;2.65;;;;;;;27.09;36.52;95427.46;1795714;80;21014;-65
2022/06/20 08:19:24;;;;;;;3.05;2.60;;;;;;;27.12;35.59;95431.28;1795785;80;20987;-65
2022/06/20 08:22:02;;;;;;;4.78;2.95;;;;;;;27.14;34.77;95430.16;1795291;80;21488;-65
2022/06/20 08:24:34;;;;;;;2.92;2.72;;;;;;;27.16;34.59;95430.85;1794495;80;21047;-65
2022/06/20 08:27:08;;;;;;;10.48;3.30;;;;;;;27.20;35.02;95430.14;1794602;80;21045;-65
2022/06/20 08:29:49;;;;;;;9.00;2.83;;;;;;;27.27;35.40;95424.55;1795307;80;21015;-65
2022/06/20 08:32:40;;;;;;;3.33;2.50;;;;;;;27.45;36.30;95418.51;1795573;80;21477;-65
2022/06/20 08:35:24;;;;;;;3.95;2.85;;;;;;;27.63;35.17;95413.64;1795233;80;21034;-65
2022/06/20 08:37:56;;;;;;;5.70;2.83;;;;;;;27.67;34.12;95418.31;1795574;80;20987;-65
2022/06/20 08:40:31;;;;;;;3.05;2.80;;;;;;;27.77;34.70;95414.25;1795658;80;21050;-65
2022/06/20 08:43:24;;;;;;;4.67;2.70;;;;;;;27.75;32.89;95408.13;1793607;80;20967;-65
2022/06/20 08:46:14;;;;;;;3.67;2.70;;;;;;;27.74;33.46;95407.75;1793837;80;21017;-65
2022/06/20 08:49:20;;;;;;;3.10;2.62;;;;;;;27.91;33.61;95403.56;1793798;80;21010;-65
2022/06/20 08:52:15;;;;;;;4.70;2.65;;;;;;;28.05;33.60;95412.16;1794546;80;21003;-65
2022/06/20 08:55:35;;;;;;;3.62;2.90;;;;;;;28.18;33.25;95406.47;1794872;80;21014;-65
2022/06/20 08:58:25;;;;;;;2.87;2.55;;;;;;;28.24;33.13;95411.31;1795594;80;21007;-65
2022/06/20 09:01:12;;;;;;;6.95;2.77;;;;;;;28.41;33.29;95413.84;1795142;80;21065;-65
2022/06/20 09:04:08;;;;;;;3.60;3.02;;;;;;;28.52;31.81;95412.86;1793082;80;21022;-65
2022/06/20 09:06:52;;;;;;;3.10;2.77;;;;;;;28.39;32.29;95407.69;1795668;80;21030;-65
2022/06/20 09:09:47;;;;;;;4.40;2.80;;;;;;;28.47;33.76;95407.86;1794697;80;21081;-65
2022/06/20 09:12:54;;;;;;;5.35;2.98;;;;;;;28.74;33.67;95402.22;1795047;80;20963;-65
2022/06/20 09:15:38;;;;;;;4.67;2.62;;;;;;;28.91;30.18;95394.69;1795459;80;21041;-65
2022/06/20 09:18:28;;;;;;;4.12;2.83;;;;;;;29.14;31.84;95395.75;1795501;80;21014;-65
2022/06/20 09:21:12;;;;;;;5.55;2.67;;;;;;;29.26;30.66;95393.20;1795258;80;21041;-65
2022/06/20 09:23:57;;;;;;;3.50;2.58;;;;;;;29.35;31.18;95391.45;1794914;80;21011;-65
2022/06/20 09:26:48;;;;;;;5.30;2.75;;;;;;;29.45;31.67;95380.55;1795482;80;20986;-65
2022/06/20 09:29:20;;;;;;;4.28;2.75;;;;;;;29.66;31.01;95385.28;1713797;84;21003;-65
2022/06/20 09:32:15;;;;;;;2.75;2.55;;;;;;;29.87;30.53;95377.38;1774593;80;21485;-65
2022/06/20 09:35:22;;;;;;;3.52;2.65;;;;;;;29.93;30.40;95382.19;1795687;80;20959;-65
2022/06/20 09:38:14;;;;;;;4.15;2.85;;;;;;;29.95;29.73;95374.73;1795575;80;21018;-65
2022/06/20 09:41:04;;;;;;;3.08;2.70;;;;;;;30.12;30.37;95367.63;1795850;80;21011;-65
2022/06/20 09:44:11;;;;;;;3.85;2.83;;;;;;;30.24;29.86;95370.50;1795669;80;21472;-65
2022/06/20 09:46:54;;;;;;;3.02;2.83;;;;;;;30.28;29.72;95366.44;1795703;80;21010;-65
2022/06/20 09:49:29;;;;;;;3.55;2.90;;;;;;;30.46;29.80;95355.55;1757161;80;21034;-65
2022/06/20 09:52:22;;;;;;;5.10;3.08;;;;;;;30.53;29.32;95357.15;1795759;80;21039;-65
2022/06/20 09:55:18;;;;;;;;;;;;;;;30.68;29.71;95358.81;1797885;80;21030;-65
2022/06/20 09:58:07;;;;;;;3.25;2.83;;;;;;;30.89;29.19;95348.44;1795758;80;20119;-65
2022/06/20 10:00:54;;;;;;;3.77;2.65;;;;;;;31.04;29.56;95351.44;1795826;80;21003;-65
2022/06/20 10:03:26;;;;;;;4.55;3.00;;;;;;;31.04;27.65;95338.66;1795550;80;20987;-65
2022/06/20 10:06:01;;;;;;;2.98;2.75;;;;;;;30.95;28.15;95343.73;1793091;80;21037;-65
2022/06/20 10:08:35;;;;;;;3.80;2.90;;;;;;;31.02;29.07;95335.27;1794080;80;20975;-66
2022/06/20 10:11:40;;;;;;;3.37;3.00;;;;;;;31.04;27.62;95329.13;1794389;80;21070;-67
2022/06/20 10:14:40;;;;;;;3.42;2.87;;;;;;;31.19;29.02;95333.98;1795423;80;21014;-67
2022/06/20 10:17:44;;;;;;;3.75;2.75;;;;;;;31.24;28.57;95327.54;1795407;80;21022;-67
2022/06/20 10:20:51;;;;;;;3.02;2.80;;;;;;;31.47;28.30;95322.39;1795619;80;20955;-67
2022/06/20 10:23:32;;;;;;;4.87;2.52;;;;;;;31.58;27.11;95322.13;1746129;80;21153;-67
2022/06/20 10:26:37;;;;;;;8.15;2.70;;;;;;;31.77;28.69;95310.06;1795468;80;21002;-67
2022/06/20 10:29:15;;;;;;;3.60;2.55;;;;;;;31.98;28.99;95308.78;1795070;80;21053;-67
2022/06/20 10:32:04;;;;;;;4.60;2.60;;;;;;;32.14;28.07;95299.80;1795637;80;21010;-67
2022/06/20 10:34:42;;;;;;;4.25;2.80;;;;;;;32.27;28.55;95302.88;1795272;80;21006;-67
2022/06/20 10:37:25;;;;;;;3.10;2.90;;;;;;;32.43;27.94;95297.92;1795608;80;20966;-67
2022/06/20 10:40:09;;;;;;;5.33;3.25;;;;;;;32.51;27.53;95300.19;1795056;80;21074;-67
2022/06/20 10:43:11;;;;;;;3.98;3.02;;;;;;;32.34;27.12;95303.39;1795257;80;20994;-67
2022/06/20 10:45:53;;;;;;;3.20;3.00;;;;;;;32.16;26.62;95306.80;1795711;80;20986;-67
2022/06/20 10:48:43;;;;;;;5.03;3.20;;;;;;;31.80;26.98;95300.22;1795496;80;21026;-67
2022/06/20 10:51:52;;;;;;;10.93;3.58;;;;;;;31.52;28.74;95306.91;1795605;80;21066;-67
2022/06/20 10:55:00;;;;;;;5.60;3.17;;;;;;;31.50;27.70;95307.09;1795196;80;21015;-67
2022/06/20 10:57:51;;;;;;;5.25;3.10;;;;;;;31.57;27.45;95300.45;1794379;80;21006;-67
2022/06/20 11:00:22;;;;;;;5.10;2.95;;;;;;;31.53;28.20;95295.01;1795587;80;21508;-67
2022/06/20 11:03:12;;;;;;;5.90;3.25;;;;;;;31.86;28.82;95291.86;1795725;80;21003;-67
2022/06/20 11:05:55;;;;;;;4.05;3.35;;;;;;;32.10;28.17;95297.89;1795617;80;21520;-67
2022/06/20 11:08:39;;;;;;;3.52;3.30;;;;;;;32.32;28.89;95290.41;1795546;80;21488;-67
2022/06/20 11:11:23;;;;;;;5.58;3.30;;;;;;;32.48;27.76;95286.89;1791584;80;21022;-67
2022/06/20 11:14:24;;;;;;;4.25;3.58;;;;;;;32.66;28.71;95277.63;1795770;80;20991;-67
2022/06/20 11:17:02;;;;;;;3.20;3.00;;;;;;;32.79;27.04;95272.52;1795476;80;21007;-67
2022/06/20 11:20:00;;;;;;;3.22;3.00;;;;;;;32.92;27.54;95273.34;1795801;80;20967;-67
2022/06/20 11:22:44;;;;;;;3.50;3.20;;;;;;;32.92;26.90;95276.08;1795616;80;21011;-67
2022/06/20 11:25:22;;;;;;;3.62;3.33;;;;;;;32.88;26.41;95274.70;1793837;80;21040;-67
2022/06/20 11:28:06;;;;;;;5.90;3.25;;;;;;;32.96;26.38;95267.84;1764267;81;21010;-67
2022/06/20 11:31:05;;;;;;;4.90;3.62;;;;;;;33.09;26.56;95267.36;1795375;80;21018;-67
2022/06/20 11:34:03;;;;;;;6.20;3.20;;;;;;;33.09;25.87;95264.62;1795591;80;20994;-67
2022/06/20 11:37:02;;;;;;;4.45;3.10;;;;;;;33.21;27.57;95254.99;1762618;80;21030;-67
2022/06/20 11:39:51;;;;;;;5.03;3.40;;;;;;;33.30;27.23;95255.31;1738233;80;21101;-67
2022/06/20 11:42:49;;;;;;;3.33;3.00;;;;;;;33.43;26.29;95243.80;1795578;80;21414;-67
2022/06/20 11:45:53;;;;;;;7.65;3.30;;;;;;;33.59;26.77;95244.27;1795591;80;21538;-67
2022/06/20 11:48:48;;;;;;;4.15;3.05;;;;;;;33.65;26.74;95244.93;1795171;80;21041;-67
2022/06/20 11:51:41;;;;;;;6.72;3.60;;;;;;;33.65;26.32;95246.30;1764322;80;20983;-67
2022/06/20 11:54:22;;;;;;;5.47;2.77;;;;;;;33.71;26.72;95235.14;1791873;80;21437;-67
2022/06/20 11:57:02;;;;;;;3.75;3.00;;;;;;;33.58;26.21;95233.00;1787251;80;21548;-67
2022/06/20 11:59:57;;;;;;;3.92;2.70;;;;;;;33.70;26.61;95230.72;1786685;80;21011;-67
2022/06/20 12:02:41;;;;;;;3.90;3.60;;;;;;;33.81;25.45;95222.08;1787288;80;21047;-67
2022/06/20 12:05:55;;;;;;;4.17;3.80;;;;;;;33.77;25.33;95226.23;1786968;80;21011;-67
2022/06/20 12:08:39;;;;;;;4.50;4.10;;;;;;;33.76;25.26;95225.88;1787285;80;20959;-67
2022/06/20 12:11:29;;;;;;;4.05;3.65;;;;;;;33.93;25.18;95222.00;1787189;80;21026;-67
2022/06/20 12:14:25;;;;;;;4.72;3.67;;;;;;;33.87;25.19;95211.80;1786272;80;21007;-67
2022/06/20 12:17:10;;;;;;;5.00;4.50;;;;;;;34.21;24.36;95207.80;1786874;80;21019;-67
2022/06/20 12:26:01;;;;;;;10.13;6.87;;;;;;;35.06;22.86;95191.05;1787010;80;21458;-68
2022/06/20 12:28:35;;;;;;;6.47;5.33;;;;;;;35.21;23.53;95182.84;1787201;80;21019;-67
2022/06/20 12:31:20;;;;;;;5.28;4.87;;;;;;;35.46;22.67;95173.77;1787304;80;21015;-67
2022/06/20 12:34:30;;;;;;;4.75;4.20;;;;;;;35.23;22.07;95165.68;1786838;80;21497;-66
2022/06/20 12:37:16;;;;;;;11.05;4.75;;;;;;;35.62;22.53;95163.63;1787370;80;20955;-67
2022/06/20 12:39:54;;;;;;;3.85;3.40;;;;;;;35.98;23.22;95163.58;1786785;80;21011;-67
2022/06/20 12:42:42;;;;;;;6.97;3.45;;;;;;;36.43;22.67;95165.59;1785834;80;20995;-68
2022/06/20 12:45:32;;;;;;;5.15;3.42;;;;;;;36.73;21.10;95165.44;1787104;80;21007;-68